sensor_id;sensor_type;location;lat;lon;timestamp;temperature;humidity
1225;DHT22;602;48.000;7.840;2023-04-07T00:01:50;12.00;99.90
1225;DHT22;602;48.000;7.840;2023-04-07T00:04:17;12.00;99.90
1225;DHT22;602;48.000;7.840;2023-04-07T00:06:43;12.00;99.90
1225;DHT22;602;48.000;7.840;2023-04-07T00:09:10;12.00;99.90
1225;DHT22;602;48.000;7.840;2023-04-07T00:11:38;11.90;99.90
1225;DHT22;602;48.000;7.840;2023-04-07T00:14:06;12.00;99.90
1225;DHT22;602;48.000;7.840;2023-04-07T00:16:33;11.90;99.90
1225;DHT22;602;48.000;7.840;2023-04-07T00:18:59;11.90;99.90
1225;DHT22;602;48.000;7.840;2023-04-07T00:21:26;12.00;99.90
1225;DHT22;602;48.000;7.840;2023-04-07T00:23:53;12.00;99.90
1225;DHT22;602;48.000;7.840;2023-04-07T00:26:20;12.10;99.90
1225;DHT22;602;48.000;7.840;2023-04-07T00:28:48;12.10;99.90
1225;DHT22;602;48.000;7.840;2023-04-07T00:31:15;12.00;99.90
1225;DHT22;602;48.000;7.840;2023-04-07T00:33:42;12.00;99.90
1225;DHT22;602;48.000;7.840;2023-04-07T00:36:09;12.10;99.90
1225;DHT22;602;48.000;7.840;2023-04-07T00:38:36;12.10;99.90
1225;DHT22;602;48.000;7.840;2023-04-07T00:41:02;12.00;99.90
1225;DHT22;602;48.000;7.840;2023-04-07T00:43:30;12.10;99.90
1225;DHT22;602;48.000;7.840;2023-04-07T00:45:58;12.10;99.90
1225;DHT22;602;48.000;7.840;2023-04-07T00:48:25;12.10;99.90
1225;DHT22;602;48.000;7.840;2023-04-07T00:50:52;12.10;99.90
1225;DHT22;602;48.000;7.840;2023-04-07T00:53:19;12.10;99.90
1225;DHT22;602;48.000;7.840;2023-04-07T00:55:46;12.20;99.90
1225;DHT22;602;48.000;7.840;2023-04-07T00:58:13;12.20;99.90
1225;DHT22;602;48.000;7.840;2023-04-07T01:03:32;12.20;99.90
1225;DHT22;602;48.000;7.840;2023-04-07T01:06:01;12.10;99.90
1225;DHT22;602;48.000;7.840;2023-04-07T01:08:32;12.00;99.90
1225;DHT22;602;48.000;7.840;2023-04-07T01:11:07;11.90;99.90
1225;DHT22;602;48.000;7.840;2023-04-07T01:13:36;11.90;99.90
1225;DHT22;602;48.000;7.840;2023-04-07T01:16:08;11.90;99.90
1225;DHT22;602;48.000;7.840;2023-04-07T01:18:38;11.90;99.90
1225;DHT22;602;48.000;7.840;2023-04-07T01:21:10;11.90;99.90
1225;DHT22;602;48.000;7.840;2023-04-07T01:24:03;11.90;99.90
1225;DHT22;602;48.000;7.840;2023-04-07T01:26:32;11.80;99.90
1225;DHT22;602;48.000;7.840;2023-04-07T01:32:02;12.00;99.90
1225;DHT22;602;48.000;7.840;2023-04-07T01:34:31;12.00;99.90
1225;DHT22;602;48.000;7.840;2023-04-07T01:37:00;11.90;99.90
1225;DHT22;602;48.000;7.840;2023-04-07T01:39:28;11.90;99.90
1225;DHT22;602;48.000;7.840;2023-04-07T01:41:55;11.90;99.90
1225;DHT22;602;48.000;7.840;2023-04-07T01:44:23;11.80;99.90
1225;DHT22;602;48.000;7.840;2023-04-07T01:46:53;11.90;99.90
1225;DHT22;602;48.000;7.840;2023-04-07T01:49:24;11.90;99.90
1225;DHT22;602;48.000;7.840;2023-04-07T01:51:51;11.80;99.90
1225;DHT22;602;48.000;7.840;2023-04-07T01:54:19;11.90;99.90
1225;DHT22;602;48.000;7.840;2023-04-07T01:56:47;11.90;99.90
1225;DHT22;602;48.000;7.840;2023-04-07T01:59:14;11.90;99.90
1225;DHT22;602;48.000;7.840;2023-04-07T02:01:41;12.00;99.90
1225;DHT22;602;48.000;7.840;2023-04-07T02:04:11;12.00;99.90
1225;DHT22;602;48.000;7.840;2023-04-07T02:06:46;12.10;99.90
1225;DHT22;602;48.000;7.840;2023-04-07T02:09:16;12.00;99.90
1225;DHT22;602;48.000;7.840;2023-04-07T02:11:45;12.10;99.90
1225;DHT22;602;48.000;7.840;2023-04-07T02:14:13;12.10;99.90
1225;DHT22;602;48.000;7.840;2023-04-07T02:16:40;12.10;99.90
1225;DHT22;602;48.000;7.840;2023-04-07T02:19:08;12.20;99.90
1225;DHT22;602;48.000;7.840;2023-04-07T02:21:36;12.20;99.90
1225;DHT22;602;48.000;7.840;2023-04-07T02:24:06;12.20;99.90
1225;DHT22;602;48.000;7.840;2023-04-07T02:26:34;12.30;99.90
1225;DHT22;602;48.000;7.840;2023-04-07T02:29:01;12.30;99.90
1225;DHT22;602;48.000;7.840;2023-04-07T02:31:28;12.30;99.90
1225;DHT22;602;48.000;7.840;2023-04-07T02:33:55;12.30;99.90
1225;DHT22;602;48.000;7.840;2023-04-07T02:36:21;12.30;99.90
1225;DHT22;602;48.000;7.840;2023-04-07T02:38:48;12.30;99.90
1225;DHT22;602;48.000;7.840;2023-04-07T02:41:16;12.30;99.90
1225;DHT22;602;48.000;7.840;2023-04-07T02:43:43;12.10;99.90
1225;DHT22;602;48.000;7.840;2023-04-07T02:46:10;12.10;99.90
1225;DHT22;602;48.000;7.840;2023-04-07T02:48:37;12.10;99.90
1225;DHT22;602;48.000;7.840;2023-04-07T02:51:04;12.00;99.90
1225;DHT22;602;48.000;7.840;2023-04-07T02:53:31;11.90;99.90
1225;DHT22;602;48.000;7.840;2023-04-07T02:55:58;11.90;99.90
1225;DHT22;602;48.000;7.840;2023-04-07T02:58:26;11.90;99.90
1225;DHT22;602;48.000;7.840;2023-04-07T03:00:53;11.60;99.90
1225;DHT22;602;48.000;7.840;2023-04-07T03:03:20;11.50;99.90
1225;DHT22;602;48.000;7.840;2023-04-07T03:05:47;11.50;99.90
1225;DHT22;602;48.000;7.840;2023-04-07T03:08:13;11.60;99.90
1225;DHT22;602;48.000;7.840;2023-04-07T03:10:40;11.70;99.90
1225;DHT22;602;48.000;7.840;2023-04-07T03:13:08;11.50;99.90
1225;DHT22;602;48.000;7.840;2023-04-07T03:15:38;11.40;99.90
1225;DHT22;602;48.000;7.840;2023-04-07T03:18:05;11.40;99.90
1225;DHT22;602;48.000;7.840;2023-04-07T03:20:32;11.50;99.90
1225;DHT22;602;48.000;7.840;2023-04-07T03:22:59;11.50;99.90
1225;DHT22;602;48.000;7.840;2023-04-07T03:25:25;11.40;99.90
1225;DHT22;602;48.000;7.840;2023-04-07T03:27:53;11.30;99.90
1225;DHT22;602;48.000;7.840;2023-04-07T03:30:20;11.30;99.90
1225;DHT22;602;48.000;7.840;2023-04-07T03:32:48;11.30;99.90
1225;DHT22;602;48.000;7.840;2023-04-07T03:35:15;11.20;99.90
1225;DHT22;602;48.000;7.840;2023-04-07T03:37:42;11.00;99.90
1225;DHT22;602;48.000;7.840;2023-04-07T03:40:09;11.00;99.90
1225;DHT22;602;48.000;7.840;2023-04-07T03:42:36;11.10;99.90
1225;DHT22;602;48.000;7.840;2023-04-07T03:45:04;11.20;99.90
1225;DHT22;602;48.000;7.840;2023-04-07T03:47:31;11.30;99.90
1225;DHT22;602;48.000;7.840;2023-04-07T03:49:59;11.30;99.90
1225;DHT22;602;48.000;7.840;2023-04-07T03:52:26;11.40;99.90
1225;DHT22;602;48.000;7.840;2023-04-07T03:54:52;11.50;99.90
1225;DHT22;602;48.000;7.840;2023-04-07T03:57:19;11.50;99.90
1225;DHT22;602;48.000;7.840;2023-04-07T03:59:47;11.30;99.90
1225;DHT22;602;48.000;7.840;2023-04-07T04:02:15;11.10;99.90
1225;DHT22;602;48.000;7.840;2023-04-07T04:04:42;10.80;99.90
1225;DHT22;602;48.000;7.840;2023-04-07T04:07:10;10.70;99.90
1225;DHT22;602;48.000;7.840;2023-04-07T04:09:37;10.60;99.90
1225;DHT22;602;48.000;7.840;2023-04-07T04:12:04;10.40;99.90
1225;DHT22;602;48.000;7.840;2023-04-07T04:14:31;10.40;99.90
1225;DHT22;602;48.000;7.840;2023-04-07T04:16:58;10.20;99.90
1225;DHT22;602;48.000;7.840;2023-04-07T04:19:25;10.20;99.90
1225;DHT22;602;48.000;7.840;2023-04-07T04:21:52;10.30;99.90
1225;DHT22;602;48.000;7.840;2023-04-07T04:24:20;10.10;99.90
1225;DHT22;602;48.000;7.840;2023-04-07T04:26:47;10.10;99.90
1225;DHT22;602;48.000;7.840;2023-04-07T04:29:13;10.20;99.90
1225;DHT22;602;48.000;7.840;2023-04-07T04:31:40;10.10;99.90
1225;DHT22;602;48.000;7.840;2023-04-07T04:34:07;10.20;99.90
1225;DHT22;602;48.000;7.840;2023-04-07T04:36:34;10.10;99.90
1225;DHT22;602;48.000;7.840;2023-04-07T04:39:01;10.10;99.90
1225;DHT22;602;48.000;7.840;2023-04-07T04:41:29;10.20;99.90
1225;DHT22;602;48.000;7.840;2023-04-07T04:43:56;10.10;99.90
1225;DHT22;602;48.000;7.840;2023-04-07T04:46:23;10.00;99.90
1225;DHT22;602;48.000;7.840;2023-04-07T04:48:50;10.10;99.90
1225;DHT22;602;48.000;7.840;2023-04-07T04:51:18;10.10;99.90
1225;DHT22;602;48.000;7.840;2023-04-07T04:53:45;10.30;99.90
1225;DHT22;602;48.000;7.840;2023-04-07T04:56:12;10.30;99.90
1225;DHT22;602;48.000;7.840;2023-04-07T04:58:40;10.20;99.90
1225;DHT22;602;48.000;7.840;2023-04-07T05:01:10;10.10;99.90
1225;DHT22;602;48.000;7.840;2023-04-07T05:03:37;9.90;99.90
1225;DHT22;602;48.000;7.840;2023-04-07T05:06:05;9.90;99.90
1225;DHT22;602;48.000;7.840;2023-04-07T05:08:31;9.90;99.90
1225;DHT22;602;48.000;7.840;2023-04-07T05:10:58;9.90;99.90
1225;DHT22;602;48.000;7.840;2023-04-07T05:13:25;9.90;99.90
1225;DHT22;602;48.000;7.840;2023-04-07T05:15:56;10.00;99.90
1225;DHT22;602;48.000;7.840;2023-04-07T05:18:23;10.00;99.90
1225;DHT22;602;48.000;7.840;2023-04-07T05:20:50;10.00;99.90
1225;DHT22;602;48.000;7.840;2023-04-07T05:23:16;10.20;99.90
1225;DHT22;602;48.000;7.840;2023-04-07T05:25:43;10.30;99.90
1225;DHT22;602;48.000;7.840;2023-04-07T05:28:10;10.40;99.90
1225;DHT22;602;48.000;7.840;2023-04-07T05:30:37;10.60;99.90
1225;DHT22;602;48.000;7.840;2023-04-07T05:33:05;10.60;99.90
1225;DHT22;602;48.000;7.840;2023-04-07T05:35:32;10.70;99.90
1225;DHT22;602;48.000;7.840;2023-04-07T05:37:59;10.60;99.90
1225;DHT22;602;48.000;7.840;2023-04-07T05:40:27;10.50;99.90
1225;DHT22;602;48.000;7.840;2023-04-07T05:42:54;10.50;99.90
1225;DHT22;602;48.000;7.840;2023-04-07T05:45:22;10.40;99.90
1225;DHT22;602;48.000;7.840;2023-04-07T05:47:49;10.30;99.90
1225;DHT22;602;48.000;7.840;2023-04-07T05:50:18;10.20;99.90
1225;DHT22;602;48.000;7.840;2023-04-07T05:52:44;10.20;99.90
1225;DHT22;602;48.000;7.840;2023-04-07T05:55:11;10.20;99.90
1225;DHT22;602;48.000;7.840;2023-04-07T05:57:38;10.30;99.90
1225;DHT22;602;48.000;7.840;2023-04-07T06:00:07;10.30;99.90
1225;DHT22;602;48.000;7.840;2023-04-07T06:02:34;10.40;99.90
1225;DHT22;602;48.000;7.840;2023-04-07T06:05:01;10.40;99.90
1225;DHT22;602;48.000;7.840;2023-04-07T06:07:29;10.50;99.90
1225;DHT22;602;48.000;7.840;2023-04-07T06:09:56;10.60;99.90
1225;DHT22;602;48.000;7.840;2023-04-07T06:12:23;10.70;99.90
1225;DHT22;602;48.000;7.840;2023-04-07T06:14:52;10.80;99.90
1225;DHT22;602;48.000;7.840;2023-04-07T06:17:19;10.90;99.90
1225;DHT22;602;48.000;7.840;2023-04-07T06:19:45;11.00;99.90
1225;DHT22;602;48.000;7.840;2023-04-07T06:22:12;11.00;99.90
1225;DHT22;602;48.000;7.840;2023-04-07T06:24:41;10.90;99.90
1225;DHT22;602;48.000;7.840;2023-04-07T06:27:08;10.90;99.90
1225;DHT22;602;48.000;7.840;2023-04-07T06:29:34;10.90;99.90
1225;DHT22;602;48.000;7.840;2023-04-07T06:32:02;11.00;99.90
1225;DHT22;602;48.000;7.840;2023-04-07T06:34:28;11.00;99.90
1225;DHT22;602;48.000;7.840;2023-04-07T06:36:55;11.00;99.90
1225;DHT22;602;48.000;7.840;2023-04-07T06:39:22;11.00;99.90
1225;DHT22;602;48.000;7.840;2023-04-07T06:41:52;11.10;99.90
1225;DHT22;602;48.000;7.840;2023-04-07T06:44:19;11.10;99.90
1225;DHT22;602;48.000;7.840;2023-04-07T06:46:46;11.10;99.90
1225;DHT22;602;48.000;7.840;2023-04-07T06:49:14;11.10;99.90
1225;DHT22;602;48.000;7.840;2023-04-07T06:51:41;11.10;99.90
1225;DHT22;602;48.000;7.840;2023-04-07T06:54:08;11.10;99.90
1225;DHT22;602;48.000;7.840;2023-04-07T06:56:38;11.20;99.90
1225;DHT22;602;48.000;7.840;2023-04-07T06:59:06;11.20;99.90
1225;DHT22;602;48.000;7.840;2023-04-07T07:01:33;11.20;99.90
1225;DHT22;602;48.000;7.840;2023-04-07T07:04:02;11.30;99.90
1225;DHT22;602;48.000;7.840;2023-04-07T07:06:30;11.40;99.90
1225;DHT22;602;48.000;7.840;2023-04-07T07:08:57;11.40;99.90
1225;DHT22;602;48.000;7.840;2023-04-07T07:11:24;11.40;99.90
1225;DHT22;602;48.000;7.840;2023-04-07T07:13:51;11.30;99.90
1225;DHT22;602;48.000;7.840;2023-04-07T07:16:19;11.30;99.90
1225;DHT22;602;48.000;7.840;2023-04-07T07:18:48;11.40;99.90
1225;DHT22;602;48.000;7.840;2023-04-07T07:21:16;11.40;99.90
1225;DHT22;602;48.000;7.840;2023-04-07T07:23:43;11.40;99.90
1225;DHT22;602;48.000;7.840;2023-04-07T07:26:10;11.50;99.90
1225;DHT22;602;48.000;7.840;2023-04-07T07:28:37;11.50;99.90
1225;DHT22;602;48.000;7.840;2023-04-07T07:31:08;11.50;99.90
1225;DHT22;602;48.000;7.840;2023-04-07T07:33:38;11.40;99.90
1225;DHT22;602;48.000;7.840;2023-04-07T07:36:06;11.50;99.90
1225;DHT22;602;48.000;7.840;2023-04-07T07:38:33;11.50;99.90
1225;DHT22;602;48.000;7.840;2023-04-07T07:41:00;11.50;99.90
1225;DHT22;602;48.000;7.840;2023-04-07T07:43:27;11.40;99.90
1225;DHT22;602;48.000;7.840;2023-04-07T07:45:54;11.40;99.90
1225;DHT22;602;48.000;7.840;2023-04-07T07:48:21;11.40;99.90
1225;DHT22;602;48.000;7.840;2023-04-07T07:50:50;11.50;99.90
1225;DHT22;602;48.000;7.840;2023-04-07T07:53:17;11.50;99.90
1225;DHT22;602;48.000;7.840;2023-04-07T07:55:44;11.50;99.90
1225;DHT22;602;48.000;7.840;2023-04-07T07:58:11;11.50;99.90
1225;DHT22;602;48.000;7.840;2023-04-07T08:00:38;11.60;99.90
1225;DHT22;602;48.000;7.840;2023-04-07T08:03:05;11.60;99.90
1225;DHT22;602;48.000;7.840;2023-04-07T08:05:32;11.60;99.90
1225;DHT22;602;48.000;7.840;2023-04-07T08:08:00;11.70;99.90
1225;DHT22;602;48.000;7.840;2023-04-07T08:10:27;11.60;99.90
1225;DHT22;602;48.000;7.840;2023-04-07T08:12:54;11.60;99.90
1225;DHT22;602;48.000;7.840;2023-04-07T08:15:21;11.60;99.90
1225;DHT22;602;48.000;7.840;2023-04-07T08:17:48;11.70;99.90
1225;DHT22;602;48.000;7.840;2023-04-07T08:20:15;11.70;99.90
1225;DHT22;602;48.000;7.840;2023-04-07T08:22:42;11.70;99.90
1225;DHT22;602;48.000;7.840;2023-04-07T08:25:10;11.70;99.90
1225;DHT22;602;48.000;7.840;2023-04-07T08:27:37;11.60;99.90
1225;DHT22;602;48.000;7.840;2023-04-07T08:30:05;11.50;99.90
1225;DHT22;602;48.000;7.840;2023-04-07T08:32:36;11.50;99.90
1225;DHT22;602;48.000;7.840;2023-04-07T08:35:03;11.50;99.90
1225;DHT22;602;48.000;7.840;2023-04-07T08:37:30;11.40;99.90
1225;DHT22;602;48.000;7.840;2023-04-07T08:39:57;11.30;99.90
1225;DHT22;602;48.000;7.840;2023-04-07T08:42:27;11.20;99.90
1225;DHT22;602;48.000;7.840;2023-04-07T08:44:56;11.20;99.90
1225;DHT22;602;48.000;7.840;2023-04-07T08:47:24;11.20;99.90
1225;DHT22;602;48.000;7.840;2023-04-07T08:49:53;11.30;99.90
1225;DHT22;602;48.000;7.840;2023-04-07T08:52:22;11.30;99.90
1225;DHT22;602;48.000;7.840;2023-04-07T08:54:49;11.20;99.90
1225;DHT22;602;48.000;7.840;2023-04-07T08:57:18;11.10;99.90
1225;DHT22;602;48.000;7.840;2023-04-07T08:59:47;11.00;99.90
1225;DHT22;602;48.000;7.840;2023-04-07T09:02:17;10.80;99.90
1225;DHT22;602;48.000;7.840;2023-04-07T09:04:44;10.80;99.90
1225;DHT22;602;48.000;7.840;2023-04-07T09:07:11;10.80;99.90
1225;DHT22;602;48.000;7.840;2023-04-07T09:09:38;10.70;99.90
1225;DHT22;602;48.000;7.840;2023-04-07T09:12:05;10.70;99.90
1225;DHT22;602;48.000;7.840;2023-04-07T09:14:32;10.60;99.90
1225;DHT22;602;48.000;7.840;2023-04-07T09:17:00;10.50;99.90
1225;DHT22;602;48.000;7.840;2023-04-07T09:19:27;10.40;99.90
1225;DHT22;602;48.000;7.840;2023-04-07T09:21:55;10.50;99.90
1225;DHT22;602;48.000;7.840;2023-04-07T09:24:23;10.40;99.90
1225;DHT22;602;48.000;7.840;2023-04-07T09:26:50;10.40;99.90
1225;DHT22;602;48.000;7.840;2023-04-07T09:29:19;10.40;99.90
1225;DHT22;602;48.000;7.840;2023-04-07T09:31:47;10.40;99.90
1225;DHT22;602;48.000;7.840;2023-04-07T09:34:25;10.30;99.90
1225;DHT22;602;48.000;7.840;2023-04-07T09:36:52;10.30;99.90
1225;DHT22;602;48.000;7.840;2023-04-07T09:39:19;10.20;99.90
1225;DHT22;602;48.000;7.840;2023-04-07T09:41:46;10.20;99.90
1225;DHT22;602;48.000;7.840;2023-04-07T09:44:13;10.20;99.90
1225;DHT22;602;48.000;7.840;2023-04-07T09:46:47;10.20;99.90
1225;DHT22;602;48.000;7.840;2023-04-07T09:49:15;10.20;99.90
1225;DHT22;602;48.000;7.840;2023-04-07T09:51:53;10.30;99.90
1225;DHT22;602;48.000;7.840;2023-04-07T09:54:31;10.20;99.90
1225;DHT22;602;48.000;7.840;2023-04-07T09:57:00;10.10;99.90
1225;DHT22;602;48.000;7.840;2023-04-07T09:59:28;10.00;99.90
1225;DHT22;602;48.000;7.840;2023-04-07T10:01:55;9.70;99.90
1225;DHT22;602;48.000;7.840;2023-04-07T10:04:23;9.50;99.90
1225;DHT22;602;48.000;7.840;2023-04-07T10:06:52;9.50;99.90
1225;DHT22;602;48.000;7.840;2023-04-07T10:09:20;9.50;99.90
1225;DHT22;602;48.000;7.840;2023-04-07T10:11:49;9.50;99.90
1225;DHT22;602;48.000;7.840;2023-04-07T10:14:17;9.50;99.90
1225;DHT22;602;48.000;7.840;2023-04-07T10:16:45;9.50;99.90
1225;DHT22;602;48.000;7.840;2023-04-07T10:19:13;9.40;99.90
1225;DHT22;602;48.000;7.840;2023-04-07T10:21:41;9.50;99.90
1225;DHT22;602;48.000;7.840;2023-04-07T10:24:16;9.40;99.90
1225;DHT22;602;48.000;7.840;2023-04-07T10:26:50;9.30;99.90
1225;DHT22;602;48.000;7.840;2023-04-07T10:29:19;9.10;99.90
1225;DHT22;602;48.000;7.840;2023-04-07T10:31:47;9.20;99.90
1225;DHT22;602;48.000;7.840;2023-04-07T10:34:14;9.20;99.90
1225;DHT22;602;48.000;7.840;2023-04-07T10:37:07;9.20;99.90
1225;DHT22;602;48.000;7.840;2023-04-07T10:39:36;9.30;99.90
1225;DHT22;602;48.000;7.840;2023-04-07T10:42:03;9.20;99.90
1225;DHT22;602;48.000;7.840;2023-04-07T10:44:46;9.30;99.90
1225;DHT22;602;48.000;7.840;2023-04-07T10:47:15;9.30;99.90
1225;DHT22;602;48.000;7.840;2023-04-07T10:50:16;9.30;99.90
1225;DHT22;602;48.000;7.840;2023-04-07T10:52:44;9.40;99.90
1225;DHT22;602;48.000;7.840;2023-04-07T10:55:36;9.40;99.90
1225;DHT22;602;48.000;7.840;2023-04-07T10:58:13;9.40;99.90
1225;DHT22;602;48.000;7.840;2023-04-07T11:00:42;9.50;99.90
1225;DHT22;602;48.000;7.840;2023-04-07T11:03:10;9.50;99.90
1225;DHT22;602;48.000;7.840;2023-04-07T11:05:38;9.50;99.90
1225;DHT22;602;48.000;7.840;2023-04-07T11:08:05;9.50;99.90
1225;DHT22;602;48.000;7.840;2023-04-07T11:10:34;9.50;99.90
1225;DHT22;602;48.000;7.840;2023-04-07T11:13:05;9.40;99.90
1225;DHT22;602;48.000;7.840;2023-04-07T11:15:34;9.50;99.90
1225;DHT22;602;48.000;7.840;2023-04-07T11:18:12;9.40;99.90
1225;DHT22;602;48.000;7.840;2023-04-07T11:20:41;9.40;99.90
1225;DHT22;602;48.000;7.840;2023-04-07T11:23:08;9.50;99.90
1225;DHT22;602;48.000;7.840;2023-04-07T11:25:38;9.60;99.90
1225;DHT22;602;48.000;7.840;2023-04-07T11:28:09;9.60;99.90
1225;DHT22;602;48.000;7.840;2023-04-07T11:30:37;9.70;99.90
1225;DHT22;602;48.000;7.840;2023-04-07T11:33:04;9.70;99.90
1225;DHT22;602;48.000;7.840;2023-04-07T11:35:31;9.70;99.90
1225;DHT22;602;48.000;7.840;2023-04-07T11:37:58;9.80;99.90
1225;DHT22;602;48.000;7.840;2023-04-07T11:40:33;9.80;99.90
1225;DHT22;602;48.000;7.840;2023-04-07T11:43:13;9.80;99.90
1225;DHT22;602;48.000;7.840;2023-04-07T11:45:41;9.90;99.90
1225;DHT22;602;48.000;7.840;2023-04-07T11:48:26;9.90;99.90
1225;DHT22;602;48.000;7.840;2023-04-07T11:50:53;10.00;99.90
1225;DHT22;602;48.000;7.840;2023-04-07T11:53:27;10.10;99.90
1225;DHT22;602;48.000;7.840;2023-04-07T11:56:05;10.00;99.90
1225;DHT22;602;48.000;7.840;2023-04-07T11:58:36;10.00;99.90
1225;DHT22;602;48.000;7.840;2023-04-07T12:01:05;10.20;99.90
1225;DHT22;602;48.000;7.840;2023-04-07T12:03:34;10.30;99.90
1225;DHT22;602;48.000;7.840;2023-04-07T12:06:02;10.30;99.90
1225;DHT22;602;48.000;7.840;2023-04-07T12:08:37;10.40;99.90
1225;DHT22;602;48.000;7.840;2023-04-07T12:11:04;10.50;99.90
1225;DHT22;602;48.000;7.840;2023-04-07T12:13:32;10.50;99.90
1225;DHT22;602;48.000;7.840;2023-04-07T12:16:00;10.60;99.90
1225;DHT22;602;48.000;7.840;2023-04-07T12:18:28;10.60;99.90
1225;DHT22;602;48.000;7.840;2023-04-07T12:20:55;10.70;99.90
1225;DHT22;602;48.000;7.840;2023-04-07T12:23:23;10.80;99.90
1225;DHT22;602;48.000;7.840;2023-04-07T12:25:50;10.80;99.90
1225;DHT22;602;48.000;7.840;2023-04-07T12:28:18;10.90;99.90
1225;DHT22;602;48.000;7.840;2023-04-07T12:30:44;10.80;99.90
1225;DHT22;602;48.000;7.840;2023-04-07T12:33:13;10.80;99.90
1225;DHT22;602;48.000;7.840;2023-04-07T12:35:40;10.80;99.90
1225;DHT22;602;48.000;7.840;2023-04-07T12:38:07;10.80;99.90
1225;DHT22;602;48.000;7.840;2023-04-07T12:40:33;10.80;99.90
1225;DHT22;602;48.000;7.840;2023-04-07T12:43:01;11.00;99.90
1225;DHT22;602;48.000;7.840;2023-04-07T12:45:28;11.10;99.90
1225;DHT22;602;48.000;7.840;2023-04-07T12:47:55;11.10;99.90
1225;DHT22;602;48.000;7.840;2023-04-07T12:50:24;11.10;99.90
1225;DHT22;602;48.000;7.840;2023-04-07T12:52:51;11.20;99.90
1225;DHT22;602;48.000;7.840;2023-04-07T12:55:19;11.10;99.90
1225;DHT22;602;48.000;7.840;2023-04-07T12:57:46;11.10;99.90
1225;DHT22;602;48.000;7.840;2023-04-07T13:00:13;11.00;99.90
1225;DHT22;602;48.000;7.840;2023-04-07T13:02:41;11.00;99.90
1225;DHT22;602;48.000;7.840;2023-04-07T13:05:08;11.00;99.90
1225;DHT22;602;48.000;7.840;2023-04-07T13:07:37;11.00;99.90
1225;DHT22;602;48.000;7.840;2023-04-07T13:10:05;11.00;99.90
1225;DHT22;602;48.000;7.840;2023-04-07T13:12:33;11.00;99.90
1225;DHT22;602;48.000;7.840;2023-04-07T13:15:00;10.90;99.90
1225;DHT22;602;48.000;7.840;2023-04-07T13:17:27;11.00;99.90
1225;DHT22;602;48.000;7.840;2023-04-07T13:19:54;10.90;99.90
1225;DHT22;602;48.000;7.840;2023-04-07T13:22:21;10.90;99.90
1225;DHT22;602;48.000;7.840;2023-04-07T13:24:50;11.00;99.90
1225;DHT22;602;48.000;7.840;2023-04-07T13:27:17;11.00;99.90
1225;DHT22;602;48.000;7.840;2023-04-07T13:29:44;11.10;99.90
1225;DHT22;602;48.000;7.840;2023-04-07T13:32:11;11.10;99.90
1225;DHT22;602;48.000;7.840;2023-04-07T13:34:39;11.00;99.90
1225;DHT22;602;48.000;7.840;2023-04-07T13:37:06;11.10;99.90
1225;DHT22;602;48.000;7.840;2023-04-07T13:39:33;11.10;99.90
1225;DHT22;602;48.000;7.840;2023-04-07T13:42:02;11.10;99.90
1225;DHT22;602;48.000;7.840;2023-04-07T13:44:29;11.00;99.90
1225;DHT22;602;48.000;7.840;2023-04-07T13:46:56;11.00;99.90
1225;DHT22;602;48.000;7.840;2023-04-07T13:49:23;11.00;99.90
1225;DHT22;602;48.000;7.840;2023-04-07T13:51:50;10.90;99.90
1225;DHT22;602;48.000;7.840;2023-04-07T13:54:17;10.90;99.90
1225;DHT22;602;48.000;7.840;2023-04-07T13:56:44;10.80;99.90
1225;DHT22;602;48.000;7.840;2023-04-07T13:59:14;10.80;99.90
1225;DHT22;602;48.000;7.840;2023-04-07T14:01:41;10.80;99.90
1225;DHT22;602;48.000;7.840;2023-04-07T14:04:08;10.80;99.90
1225;DHT22;602;48.000;7.840;2023-04-07T14:06:34;10.80;99.90
1225;DHT22;602;48.000;7.840;2023-04-07T14:09:02;10.80;99.90
1225;DHT22;602;48.000;7.840;2023-04-07T14:11:33;10.90;99.90
1225;DHT22;602;48.000;7.840;2023-04-07T14:14:00;11.00;99.90
1225;DHT22;602;48.000;7.840;2023-04-07T14:16:29;11.00;99.90
1225;DHT22;602;48.000;7.840;2023-04-07T14:18:56;11.00;99.90
1225;DHT22;602;48.000;7.840;2023-04-07T14:21:23;11.00;99.90
1225;DHT22;602;48.000;7.840;2023-04-07T14:23:52;11.10;99.90
1225;DHT22;602;48.000;7.840;2023-04-07T14:26:19;11.10;99.90
1225;DHT22;602;48.000;7.840;2023-04-07T14:28:46;11.00;99.90
1225;DHT22;602;48.000;7.840;2023-04-07T14:31:14;11.00;99.90
1225;DHT22;602;48.000;7.840;2023-04-07T14:33:43;10.90;99.90
1225;DHT22;602;48.000;7.840;2023-04-07T14:36:10;11.00;99.90
1225;DHT22;602;48.000;7.840;2023-04-07T14:38:37;11.00;99.90
1225;DHT22;602;48.000;7.840;2023-04-07T14:41:03;11.00;99.90
1225;DHT22;602;48.000;7.840;2023-04-07T14:43:30;11.00;99.90
1225;DHT22;602;48.000;7.840;2023-04-07T14:45:57;11.10;99.90
1225;DHT22;602;48.000;7.840;2023-04-07T14:48:25;11.10;99.90
1225;DHT22;602;48.000;7.840;2023-04-07T14:50:54;11.10;99.90
1225;DHT22;602;48.000;7.840;2023-04-07T14:53:21;11.10;99.90
1225;DHT22;602;48.000;7.840;2023-04-07T14:55:48;11.20;99.90
1225;DHT22;602;48.000;7.840;2023-04-07T14:58:14;11.30;99.90
1225;DHT22;602;48.000;7.840;2023-04-07T15:00:41;11.30;99.90
1225;DHT22;602;48.000;7.840;2023-04-07T15:03:08;11.30;99.90
1225;DHT22;602;48.000;7.840;2023-04-07T15:05:35;11.30;99.90
1225;DHT22;602;48.000;7.840;2023-04-07T15:08:03;11.30;99.90
1225;DHT22;602;48.000;7.840;2023-04-07T15:10:30;11.30;99.90
1225;DHT22;602;48.000;7.840;2023-04-07T15:13:00;11.30;99.90
1225;DHT22;602;48.000;7.840;2023-04-07T15:15:26;11.30;99.90
1225;DHT22;602;48.000;7.840;2023-04-07T15:17:53;11.30;99.90
1225;DHT22;602;48.000;7.840;2023-04-07T15:20:20;11.30;99.90
1225;DHT22;602;48.000;7.840;2023-04-07T15:22:47;11.30;99.90
1225;DHT22;602;48.000;7.840;2023-04-07T15:25:16;11.40;99.90
1225;DHT22;602;48.000;7.840;2023-04-07T15:27:43;11.40;99.90
1225;DHT22;602;48.000;7.840;2023-04-07T15:30:11;11.40;99.90
1225;DHT22;602;48.000;7.840;2023-04-07T15:32:38;11.40;99.90
1225;DHT22;602;48.000;7.840;2023-04-07T15:35:05;11.50;99.90
1225;DHT22;602;48.000;7.840;2023-04-07T15:37:32;11.60;99.90
1225;DHT22;602;48.000;7.840;2023-04-07T15:39:59;11.60;99.90
1225;DHT22;602;48.000;7.840;2023-04-07T15:42:27;11.60;99.90
1225;DHT22;602;48.000;7.840;2023-04-07T15:44:54;11.60;99.90
1225;DHT22;602;48.000;7.840;2023-04-07T15:47:20;11.70;99.90
1225;DHT22;602;48.000;7.840;2023-04-07T15:49:47;11.80;99.90
1225;DHT22;602;48.000;7.840;2023-04-07T15:52:14;11.70;99.90
1225;DHT22;602;48.000;7.840;2023-04-07T15:54:41;11.70;99.90
1225;DHT22;602;48.000;7.840;2023-04-07T15:57:08;11.80;99.90
1225;DHT22;602;48.000;7.840;2023-04-07T15:59:37;11.90;99.90
1225;DHT22;602;48.000;7.840;2023-04-07T16:02:04;11.90;99.90
1225;DHT22;602;48.000;7.840;2023-04-07T16:04:30;11.90;99.90
1225;DHT22;602;48.000;7.840;2023-04-07T16:06:57;11.90;99.90
1225;DHT22;602;48.000;7.840;2023-04-07T16:09:24;11.80;99.90
1225;DHT22;602;48.000;7.840;2023-04-07T16:11:52;11.70;99.90
1225;DHT22;602;48.000;7.840;2023-04-07T16:14:19;11.70;99.90
1225;DHT22;602;48.000;7.840;2023-04-07T16:16:47;11.70;99.90
1225;DHT22;602;48.000;7.840;2023-04-07T16:19:18;11.70;99.90
1225;DHT22;602;48.000;7.840;2023-04-07T16:21:45;11.70;99.90
1225;DHT22;602;48.000;7.840;2023-04-07T16:24:12;11.60;99.90
1225;DHT22;602;48.000;7.840;2023-04-07T16:26:38;11.60;99.90
1225;DHT22;602;48.000;7.840;2023-04-07T16:29:05;11.50;99.90
1225;DHT22;602;48.000;7.840;2023-04-07T16:31:32;11.50;99.90